createdAt,value
2023-06-10T00:00:32.875Z,78.64
2023-06-10T00:03:39.460Z,78.59
2023-06-10T00:06:26.357Z,78.48
2023-06-10T00:09:15.192Z,78.55
2023-06-10T00:12:04.401Z,78.47
2023-06-10T00:14:52.840Z,78.47
2023-06-10T00:17:40.949Z,78.70
2023-06-10T00:20:27.759Z,79.04
2023-06-10T00:23:14.686Z,78.67
2023-06-10T00:26:01.598Z,78.64
2023-06-10T00:28:48.493Z,78.87
2023-06-10T00:31:36.316Z,78.72
2023-06-10T00:34:22.951Z,78.87
2023-06-10T00:37:09.841Z,78.80
2023-06-10T00:39:57.425Z,78.69
2023-06-10T00:42:43.818Z,78.75
2023-06-10T00:45:31.045Z,78.91
2023-06-10T00:48:19.351Z,78.82
2023-06-10T00:51:06.859Z,79.10
2023-06-10T00:53:53.906Z,78.96
2023-06-10T00:56:40.879Z,78.70
2023-06-10T00:59:28.900Z,78.76
2023-06-10T01:02:15.660Z,78.62
2023-06-10T01:05:06.982Z,78.80
2023-06-10T01:08:32.193Z,78.63
2023-06-10T01:11:22.608Z,78.79
2023-06-10T01:14:10.939Z,78.75
2023-06-10T01:16:59.423Z,78.66
2023-06-10T01:19:56.150Z,78.68
2023-06-10T01:22:44.137Z,78.71
2023-06-10T01:25:34.159Z,78.83
2023-06-10T01:28:30.731Z,78.67
2023-06-10T01:31:24.929Z,78.69
2023-06-10T01:34:12.404Z,78.83
2023-06-10T01:36:59.852Z,78.89
2023-06-10T01:39:48.114Z,78.90
2023-06-10T01:42:34.743Z,79.06
2023-06-10T01:45:24.279Z,79.07
2023-06-10T01:48:11.060Z,79.04
2023-06-10T01:50:57.495Z,79.06
2023-06-10T01:53:44.705Z,79.01
2023-06-10T01:56:31.591Z,79.04
2023-06-10T01:59:18.175Z,79.02
2023-06-10T02:02:06.542Z,79.11
2023-06-10T02:04:53.081Z,78.86
2023-06-10T02:07:41.633Z,79.10
2023-06-10T02:10:28.144Z,79.01
2023-06-10T02:13:14.869Z,79.02
2023-06-10T02:16:02.686Z,78.99
2023-06-10T02:18:49.837Z,78.76
2023-06-10T02:21:36.477Z,78.90
2023-06-10T02:24:23.408Z,78.97
2023-06-10T02:27:10.390Z,78.98
2023-06-10T02:29:58.425Z,78.84
2023-06-10T02:32:49.169Z,78.92
2023-06-10T02:35:40.741Z,78.74
2023-06-10T02:38:27.642Z,78.86
2023-06-10T02:41:14.637Z,79.09
2023-06-10T02:44:01.464Z,79.16
2023-06-10T02:46:48.567Z,79.07
2023-06-10T02:49:36.094Z,79.07
2023-06-10T02:52:25.120Z,79.01
2023-06-10T02:55:12.672Z,79.03
2023-06-10T02:58:01.817Z,79.10
2023-06-10T03:00:50.020Z,79.03
2023-06-10T03:03:38.828Z,79.14
2023-06-10T03:06:28.610Z,79.10
2023-06-10T03:09:22.191Z,79.25
2023-06-10T03:12:11.693Z,79.31
2023-06-10T03:15:02.341Z,79.22
2023-06-10T03:17:50.937Z,79.09
2023-06-10T03:20:40.343Z,79.09
2023-06-10T03:23:28.474Z,79.11
2023-06-10T03:26:17.038Z,79.04
2023-06-10T03:29:06.017Z,79.07
2023-06-10T03:31:52.665Z,79.18
2023-06-10T03:34:39.839Z,79.21
2023-06-10T03:37:26.891Z,79.36
2023-06-10T03:40:15.187Z,79.07
2023-06-10T03:43:04.953Z,78.96
2023-06-10T03:45:52.044Z,79.00
2023-06-10T03:48:39.934Z,78.97
2023-06-10T03:51:30.390Z,79.27
2023-06-10T03:54:17.189Z,79.40
2023-06-10T03:57:04.521Z,79.39
2023-06-10T03:59:51.298Z,79.51
2023-06-10T04:02:38.114Z,79.37
2023-06-10T04:05:24.895Z,79.00
2023-06-10T04:08:12.544Z,79.00
2023-06-10T04:10:59.522Z,79.05
2023-06-10T04:13:47.343Z,78.86
2023-06-10T04:16:34.892Z,78.97
2023-06-10T04:19:22.399Z,79.04
2023-06-10T04:22:09.334Z,78.78
2023-06-10T04:24:56.767Z,78.58
2023-06-10T04:27:44.654Z,78.77
2023-06-10T04:30:32.366Z,78.78
2023-06-10T04:33:19.958Z,78.70
2023-06-10T04:36:08.051Z,78.65
2023-06-10T04:38:56.014Z,78.66
2023-06-10T04:41:43.128Z,78.61
2023-06-10T04:44:32.123Z,78.40
2023-06-10T04:47:18.903Z,78.44
2023-06-10T04:50:07.319Z,78.10
2023-06-10T04:52:54.215Z,77.74
2023-06-10T04:55:40.973Z,77.63
2023-06-10T04:58:27.971Z,77.99
2023-06-10T05:01:14.836Z,77.75
2023-06-10T05:04:01.805Z,77.58
2023-06-10T05:06:48.793Z,77.49
2023-06-10T05:09:35.962Z,77.33
2023-06-10T05:12:23.659Z,77.35
2023-06-10T05:15:11.571Z,77.57
2023-06-10T05:17:59.843Z,77.11
2023-06-10T05:20:47.999Z,76.61
2023-06-10T05:23:34.872Z,76.53
2023-06-10T05:26:22.101Z,75.78
2023-06-10T05:29:10.397Z,75.99
2023-06-10T05:31:58.934Z,75.92
2023-06-10T05:34:45.638Z,75.36
2023-06-10T05:37:34.494Z,75.60
2023-06-10T05:40:21.370Z,74.66
2023-06-10T05:43:08.302Z,74.98
2023-06-10T05:45:55.260Z,74.56
2023-06-10T05:48:42.227Z,74.54
2023-06-10T05:51:39.454Z,74.38
2023-06-10T05:54:29.878Z,74.21
2023-06-10T05:57:17.529Z,73.97
2023-06-10T06:00:05.676Z,73.57
2023-06-10T06:03:00.417Z,73.49
2023-06-10T06:05:47.422Z,73.28
2023-06-10T06:08:34.672Z,73.59
2023-06-10T06:11:21.227Z,73.59
2023-06-10T06:14:08.265Z,73.49
2023-06-10T06:16:55.263Z,73.41
2023-06-10T06:19:42.281Z,73.31
2023-06-10T06:22:31.855Z,73.53
2023-06-10T06:25:20.229Z,73.21
2023-06-10T06:28:08.523Z,73.18
2023-06-10T06:30:55.499Z,73.08
2023-06-10T06:33:43.105Z,73.52
2023-06-10T06:36:29.794Z,73.03
2023-06-10T06:39:17.256Z,72.95
2023-06-10T06:42:04.554Z,72.39
2023-06-10T06:45:08.553Z,72.63
2023-06-10T06:47:57.416Z,72.70
2023-06-10T06:50:44.543Z,73.02
2023-06-10T06:53:32.200Z,72.28
2023-06-10T06:56:21.869Z,71.99
2023-06-10T06:59:08.847Z,72.01
2023-06-10T07:01:56.018Z,71.81
2023-06-10T07:04:43.586Z,71.81
2023-06-10T07:07:31.654Z,71.29
2023-06-10T07:10:18.790Z,71.51
2023-06-10T07:13:05.667Z,71.36
2023-06-10T07:15:52.872Z,71.06
2023-06-10T07:18:41.597Z,70.46
2023-06-10T07:21:33.484Z,70.63
2023-06-10T07:24:21.642Z,70.61
2023-06-10T07:27:09.117Z,70.61
2023-06-10T07:29:56.109Z,70.97
2023-06-10T07:32:42.868Z,71.07
2023-06-10T07:35:29.760Z,70.97
2023-06-10T07:38:18.827Z,71.02
2023-06-10T07:41:05.997Z,70.69
2023-06-10T07:43:57.318Z,70.60
2023-06-10T07:46:44.629Z,70.39
2023-06-10T07:49:31.752Z,70.71
2023-06-10T07:52:18.868Z,70.00
2023-06-10T07:55:06.235Z,69.78
2023-06-10T07:57:54.139Z,69.42
2023-06-10T08:00:40.841Z,69.30
2023-06-10T08:03:28.036Z,69.10
2023-06-10T08:06:15.225Z,68.81
2023-06-10T08:09:01.939Z,69.05
2023-06-10T08:11:49.035Z,68.49
2023-06-10T08:14:39.219Z,68.72
2023-06-10T08:17:26.069Z,69.16
2023-06-10T08:20:13.053Z,69.11
2023-06-10T08:23:00.002Z,68.80
2023-06-10T08:25:46.953Z,68.83
2023-06-10T08:28:33.863Z,69.08
2023-06-10T08:31:20.765Z,68.86
2023-06-10T08:34:07.482Z,68.84
2023-06-10T08:36:56.456Z,69.08
2023-06-10T08:39:43.177Z,68.68
2023-06-10T08:42:45.619Z,68.90
2023-06-10T08:45:36.751Z,68.46
2023-06-10T08:48:23.952Z,68.31
2023-06-10T08:51:12.947Z,68.46
2023-06-10T08:54:08.456Z,68.17
2023-06-10T08:56:56.636Z,68.44
2023-06-10T08:59:43.438Z,67.80
2023-06-10T09:02:31.762Z,67.82
2023-06-10T09:05:19.123Z,67.24
2023-06-10T09:08:10.436Z,67.04
2023-06-10T09:10:57.884Z,66.87
2023-06-10T09:13:46.862Z,67.05
2023-06-10T09:16:33.870Z,67.05
2023-06-10T09:19:22.428Z,66.42
2023-06-10T09:22:09.087Z,65.54
2023-06-10T09:25:13.903Z,65.49
2023-06-10T09:28:00.721Z,65.38
2023-06-10T09:30:47.617Z,65.49
2023-06-10T09:33:34.762Z,64.71
2023-06-10T09:36:25.153Z,64.36
2023-06-10T09:39:17.528Z,64.48
2023-06-10T09:42:17.124Z,64.48
2023-06-10T09:45:05.974Z,64.24
2023-06-10T09:47:54.759Z,63.79
2023-06-10T09:50:45.657Z,63.28
2023-06-10T09:53:35.020Z,63.49
2023-06-10T09:56:22.239Z,63.36
2023-06-10T09:59:09.525Z,62.39
2023-06-10T10:01:56.978Z,62.17
2023-06-10T10:04:44.957Z,61.69
2023-06-10T10:07:32.123Z,61.09
2023-06-10T10:10:21.162Z,59.86
2023-06-10T10:13:09.530Z,59.97
2023-06-10T10:16:00.587Z,60.19
2023-06-10T10:18:52.800Z,59.80
2023-06-10T10:21:45.189Z,58.20
2023-06-10T10:24:54.978Z,58.33
2023-06-10T10:28:04.042Z,56.58
2023-06-10T10:30:54.591Z,57.28
2023-06-10T10:33:47.427Z,57.36
2023-06-10T10:36:34.596Z,57.44
2023-06-10T10:39:22.200Z,56.83
2023-06-10T10:42:11.539Z,56.83
2023-06-10T10:44:58.589Z,55.75
2023-06-10T10:47:53.842Z,55.70
2023-06-10T10:50:41.964Z,55.78
2023-06-10T10:53:29.485Z,54.69
2023-06-10T10:56:19.717Z,54.56
2023-06-10T10:59:07.369Z,54.74
2023-06-10T11:01:54.855Z,54.94
2023-06-10T11:04:47.493Z,55.11
2023-06-10T11:07:36.246Z,55.38
2023-06-10T11:10:42.893Z,55.32
2023-06-10T11:13:29.855Z,56.25
2023-06-10T11:16:20.784Z,56.11
2023-06-10T11:19:07.666Z,56.25
2023-06-10T11:22:02.616Z,55.71
2023-06-10T11:24:51.793Z,55.13
2023-06-10T11:27:40.675Z,55.38
2023-06-10T11:30:27.403Z,55.79
2023-06-10T11:33:18.627Z,55.63
2023-06-10T11:36:09.065Z,55.20
2023-06-10T11:39:01.175Z,55.17
2023-06-10T11:41:47.990Z,54.89
2023-06-10T11:44:38.893Z,55.38
2023-06-10T11:47:25.805Z,55.60
2023-06-10T11:50:13.113Z,54.56
2023-06-10T11:53:02.910Z,54.31
2023-06-10T11:55:51.893Z,54.50
2023-06-10T11:58:44.105Z,54.26
2023-06-10T12:01:31.747Z,53.45
2023-06-10T12:04:22.839Z,52.88
2023-06-10T12:07:09.437Z,52.31
2023-06-10T12:10:12.206Z,52.23
2023-06-10T12:13:06.134Z,52.17
2023-06-10T12:15:53.097Z,51.99
2023-06-10T12:18:40.280Z,51.88
2023-06-10T12:21:27.532Z,52.21
2023-06-10T12:24:18.344Z,51.54
2023-06-10T12:27:05.270Z,51.80
2023-06-10T12:29:55.020Z,51.83
2023-06-10T12:32:46.506Z,52.10
2023-06-10T12:35:33.627Z,51.91
2023-06-10T12:38:25.484Z,52.15
2023-06-10T12:41:13.476Z,51.58
2023-06-10T12:44:00.734Z,51.64
2023-06-10T12:46:55.766Z,50.45
2023-06-10T12:49:42.474Z,50.88
2023-06-10T12:52:29.415Z,51.04
2023-06-10T12:55:16.610Z,51.09
2023-06-10T12:58:04.361Z,51.55
2023-06-10T13:00:54.405Z,51.46
2023-06-10T13:03:42.018Z,51.78
2023-06-10T13:06:30.079Z,51.56
2023-06-10T13:09:17.312Z,50.51
2023-06-10T13:12:04.944Z,50.59
2023-06-10T13:14:51.705Z,50.16
2023-06-10T13:17:39.126Z,50.64
2023-06-10T13:20:25.845Z,50.81
2023-06-10T13:23:12.571Z,50.37
2023-06-10T13:25:59.594Z,50.27
2023-06-10T13:28:46.702Z,50.31
2023-06-10T13:31:34.131Z,50.86
2023-06-10T13:34:21.237Z,51.20
2023-06-10T13:37:08.338Z,51.62
2023-06-10T13:39:56.409Z,51.45
2023-06-10T13:42:43.412Z,52.05
2023-06-10T13:45:30.124Z,52.24
2023-06-10T13:48:17.246Z,51.96
2023-06-10T13:51:04.301Z,52.38
2023-06-10T13:53:52.899Z,52.58
2023-06-10T13:56:40.216Z,52.58
2023-06-10T13:59:27.113Z,52.88
2023-06-10T14:02:14.225Z,53.04
2023-06-10T14:05:01.282Z,52.96
2023-06-10T14:07:48.518Z,52.68
2023-06-10T14:10:35.412Z,52.42
2023-06-10T14:13:22.378Z,51.21
2023-06-10T14:16:09.499Z,48.75
2023-06-10T14:18:58.460Z,49.57
2023-06-10T14:21:45.197Z,50.17
2023-06-10T14:24:32.099Z,50.72
2023-06-10T14:27:18.772Z,51.65
2023-06-10T14:30:06.928Z,52.40
2023-06-10T14:32:53.734Z,52.84
2023-06-10T14:35:41.143Z,53.55
2023-06-10T14:38:30.833Z,53.41
2023-06-10T14:41:17.455Z,53.33
2023-06-10T14:44:04.709Z,53.39
2023-06-10T14:46:51.707Z,53.11
2023-06-10T14:49:38.650Z,52.30
2023-06-10T14:52:25.992Z,52.28
2023-06-10T14:55:12.930Z,52.57
2023-06-10T14:57:59.833Z,53.15
2023-06-10T15:00:46.626Z,53.41
2023-06-10T15:03:33.111Z,54.08
2023-06-10T15:06:22.171Z,54.63
2023-06-10T15:09:09.786Z,55.25
2023-06-10T15:11:56.885Z,56.12
2023-06-10T15:14:43.797Z,57.13
2023-06-10T15:17:30.869Z,57.48
2023-06-10T15:20:17.744Z,57.85
2023-06-10T15:23:04.737Z,58.23
2023-06-10T15:25:51.814Z,58.62
2023-06-10T15:28:38.628Z,58.99
2023-06-10T15:31:25.469Z,59.52
2023-06-10T15:34:12.316Z,59.75
2023-06-10T15:36:59.064Z,60.12
2023-06-10T15:39:47.007Z,60.33
2023-06-10T15:42:33.846Z,60.40
2023-06-10T15:45:21.127Z,60.74
2023-06-10T15:48:08.257Z,60.84
2023-06-10T15:50:55.691Z,60.94
2023-06-10T15:53:42.419Z,61.01
2023-06-10T15:56:31.493Z,61.12
2023-06-10T15:59:18.476Z,61.24
2023-06-10T16:02:06.253Z,61.44
2023-06-10T16:04:53.113Z,61.35
2023-06-10T16:07:41.823Z,61.74
2023-06-10T16:10:28.585Z,61.61
2023-06-10T16:13:15.580Z,61.52
2023-06-10T16:16:02.586Z,61.78
2023-06-10T16:18:49.057Z,61.64
2023-06-10T16:21:38.052Z,61.77
2023-06-10T16:24:25.098Z,61.74
2023-06-10T16:27:12.247Z,61.64
2023-06-10T16:29:59.397Z,61.76
2023-06-10T16:32:46.222Z,62.00
2023-06-10T16:35:33.253Z,62.03
2023-06-10T16:38:19.878Z,62.21
2023-06-10T16:41:06.698Z,62.25
2023-06-10T16:43:53.653Z,62.27
2023-06-10T16:46:40.674Z,62.02
2023-06-10T16:49:27.404Z,61.92
2023-06-10T16:52:14.493Z,61.92
2023-06-10T16:55:01.472Z,61.96
2023-06-10T16:57:48.389Z,61.91
2023-06-10T17:00:35.618Z,62.01
2023-06-10T17:03:22.728Z,62.24
2023-06-10T17:06:09.757Z,62.37
2023-06-10T17:08:56.804Z,62.35
2023-06-10T17:11:44.697Z,62.67
2023-06-10T17:14:31.471Z,62.76
2023-06-10T17:17:18.798Z,62.98
2023-06-10T17:20:06.522Z,63.61
2023-06-10T17:22:53.333Z,63.98
2023-06-10T17:25:40.522Z,64.26
2023-06-10T17:28:27.507Z,64.36
2023-06-10T17:31:14.811Z,64.85
2023-06-10T17:34:01.990Z,65.24
2023-06-10T17:36:50.682Z,65.26
2023-06-10T17:39:38.019Z,65.59
2023-06-10T17:42:24.875Z,65.72
2023-06-10T17:45:12.667Z,65.62
2023-06-10T17:48:00.228Z,65.60
2023-06-10T17:50:47.509Z,65.53
2023-06-10T17:53:34.910Z,65.80
2023-06-10T17:56:22.192Z,65.69
2023-06-10T17:59:09.785Z,65.32
2023-06-10T18:01:56.715Z,65.24
2023-06-10T18:04:43.740Z,65.06
2023-06-10T18:07:31.644Z,64.08
2023-06-10T18:10:18.850Z,64.12
2023-06-10T18:13:06.104Z,63.91
2023-06-10T18:15:53.325Z,64.02
2023-06-10T18:18:41.318Z,63.82
2023-06-10T18:21:27.981Z,63.39
2023-06-10T18:24:15.425Z,62.46
2023-06-10T18:27:02.379Z,62.70
2023-06-10T18:29:52.829Z,62.83
2023-06-10T18:32:39.827Z,62.50
2023-06-10T18:35:27.002Z,62.30
2023-06-10T18:38:14.081Z,62.49
2023-06-10T18:41:01.180Z,62.30
2023-06-10T18:43:47.765Z,62.35
2023-06-10T18:46:35.504Z,62.56
2023-06-10T18:49:22.575Z,62.45
2023-06-10T18:52:09.825Z,62.50
2023-06-10T18:54:57.343Z,62.54
2023-06-10T18:57:44.471Z,62.42
2023-06-10T19:00:32.506Z,62.61
2023-06-10T19:03:19.580Z,62.75
2023-06-10T19:06:07.516Z,62.83
2023-06-10T19:08:55.531Z,62.81
2023-06-10T19:11:42.517Z,62.61
2023-06-10T19:14:30.659Z,63.07
2023-06-10T19:17:17.725Z,62.94
2023-06-10T19:20:06.044Z,63.39
2023-06-10T19:22:52.998Z,63.59
2023-06-10T19:25:43.932Z,63.59
2023-06-10T19:28:31.502Z,63.67
2023-06-10T19:31:18.888Z,64.03
2023-06-10T19:34:06.411Z,64.18
2023-06-10T19:36:55.073Z,64.28
2023-06-10T19:39:42.570Z,64.52
2023-06-10T19:42:30.912Z,64.32
2023-06-10T19:45:18.016Z,64.68
2023-06-10T19:48:06.954Z,64.69
2023-06-10T19:50:55.817Z,64.81
2023-06-10T19:53:43.011Z,65.00
2023-06-10T19:56:30.649Z,65.10
2023-06-10T19:59:17.364Z,65.07
2023-06-10T20:02:05.109Z,65.00
2023-06-10T20:04:53.421Z,65.12
2023-06-10T20:07:41.448Z,65.14
2023-06-10T20:10:28.708Z,65.30
2023-06-10T20:13:15.959Z,65.15
2023-06-10T20:16:03.099Z,65.15
2023-06-10T20:18:53.982Z,65.26
2023-06-10T20:21:41.216Z,65.70
2023-06-10T20:24:32.364Z,65.67
2023-06-10T20:27:19.506Z,65.91
2023-06-10T20:30:07.444Z,65.80
2023-06-10T20:32:55.745Z,65.90
2023-06-10T20:35:44.461Z,65.93
2023-06-10T20:38:31.830Z,66.04
2023-06-10T20:41:18.992Z,66.03
2023-06-10T20:44:06.182Z,66.20
2023-06-10T20:46:53.375Z,66.35
2023-06-10T20:49:40.307Z,66.39
2023-06-10T20:52:27.540Z,66.61
2023-06-10T20:55:14.565Z,66.63
2023-06-10T20:58:01.729Z,66.84
2023-06-10T21:00:48.999Z,66.86
2023-06-10T21:03:36.812Z,67.09
2023-06-10T21:06:24.133Z,67.11
2023-06-10T21:09:11.986Z,67.37
2023-06-10T21:11:58.743Z,67.42
2023-06-10T21:14:46.031Z,67.26
2023-06-10T21:17:33.182Z,67.21
2023-06-10T21:20:19.971Z,67.35
2023-06-10T21:23:06.865Z,67.53
2023-06-10T21:25:54.021Z,67.60
2023-06-10T21:28:40.970Z,67.92
2023-06-10T21:31:28.477Z,68.03
2023-06-10T21:34:17.955Z,68.07
2023-06-10T21:37:05.115Z,68.26
2023-06-10T21:39:51.962Z,68.43
2023-06-10T21:42:38.967Z,68.41
2023-06-10T21:45:26.105Z,68.60
2023-06-10T21:48:12.876Z,68.69
2023-06-10T21:51:02.413Z,68.91
2023-06-10T21:53:49.158Z,69.03
2023-06-10T21:56:36.574Z,69.09
2023-06-10T21:59:23.596Z,69.18
2023-06-10T22:02:11.310Z,69.27
2023-06-10T22:04:58.895Z,69.37
2023-06-10T22:07:45.920Z,69.50
2023-06-10T22:10:32.878Z,69.41
2023-06-10T22:13:22.893Z,69.58
2023-06-10T22:16:10.170Z,69.54
2023-06-10T22:18:57.052Z,69.70
2023-06-10T22:21:43.934Z,69.75
2023-06-10T22:24:30.651Z,69.89
2023-06-10T22:27:17.551Z,70.03
2023-06-10T22:30:05.181Z,70.12
2023-06-10T22:32:52.652Z,70.09
2023-06-10T22:35:39.663Z,70.06
2023-06-10T22:38:29.470Z,70.15
2023-06-10T22:41:17.007Z,70.09
2023-06-10T22:44:04.315Z,70.11
2023-06-10T22:46:51.271Z,70.20
2023-06-10T22:49:38.050Z,70.20
2023-06-10T22:52:24.951Z,70.45
2023-06-10T22:55:12.783Z,70.51
2023-06-10T22:58:00.423Z,70.45
2023-06-10T23:00:47.597Z,70.52
2023-06-10T23:03:34.763Z,70.55
2023-06-10T23:06:21.683Z,70.60
2023-06-10T23:09:09.068Z,70.56
2023-06-10T23:11:55.703Z,70.70
2023-06-10T23:14:42.686Z,70.57
2023-06-10T23:17:29.831Z,70.75
2023-06-10T23:20:21.029Z,70.74
2023-06-10T23:23:08.318Z,70.89
2023-06-10T23:25:54.958Z,70.96
2023-06-10T23:28:41.572Z,71.01
2023-06-10T23:31:28.691Z,71.00
2023-06-10T23:34:15.950Z,71.20
2023-06-10T23:37:02.927Z,71.38
2023-06-10T23:39:50.126Z,71.36
2023-06-10T23:42:37.237Z,71.41
2023-06-10T23:45:24.082Z,71.50
2023-06-10T23:48:11.082Z,71.32
2023-06-10T23:51:01.102Z,71.28
2023-06-10T23:53:47.613Z,71.58
2023-06-10T23:56:34.613Z,71.70
2023-06-10T23:59:21.286Z,71.68
